Wadsworth, Illinois
Current Conditions -  °F | °C
As of 3:55 PM on Sunday 21 Dec 2014 (Local Time) from KUGN Reporting Station
Overcast Overcast  
Wind Chill: 28°   Ceiling: 3500
Heat Index: 36°   Visibility: 7mi
Dew Point: 28°   Wind: 12mph
Humidity: 73%   Direction: 170°S
Pressure: 30.07"   Gusts: NA
Location:  42.43°N, 87.92°W
Report Text: KUGN 212155Z 17010KT 7SM FEW022 OVC035 02/M02 A3007 RMK AO2 SLP192 T00221022
Loading
Personal Weather Stations






























Interactive Weather Map New forecast layout! Learn more

10-Day Weather Forecast

Advertisements
Track Severe Weather on mobile